Map

Track Data

SID SEASON NUMBER BASIN SUBBASIN NAME ISO_TIME NATURE LAT LON WMO_WIND WMO_PRES WMO_AGENCY TRACK_TYPE DIST2LAND LANDFALL IFLAG USA_AGENCY USA_ATCF_ID USA_LAT USA_LON USA_RECORD USA_STATUS USA_WIND USA_PRES USA_SSHS USA_R34_NE USA_R34_SE USA_R34_SW USA_R34_NW USA_R50_NE USA_R50_SE USA_R50_SW USA_R50_NW USA_R64_NE USA_R64_SE USA_R64_SW USA_R64_NW USA_POCI USA_ROCI USA_RMW USA_EYE TOKYO_LAT TOKYO_LON TOKYO_GRADE TOKYO_WIND TOKYO_PRES TOKYO_R50_DIR TOKYO_R50_LONG TOKYO_R50_SHORT TOKYO_R30_DIR TOKYO_R30_LONG TOKYO_R30_SHORT TOKYO_LAND CMA_LAT CMA_LON CMA_CAT CMA_WIND CMA_PRES HKO_LAT HKO_LON HKO_CAT HKO_WIND HKO_PRES NEWDELHI_LAT NEWDELHI_LON NEWDELHI_GRADE NEWDELHI_WIND NEWDELHI_PRES NEWDELHI_CI NEWDELHI_DP NEWDELHI_POCI REUNION_LAT REUNION_LON REUNION_TYPE REUNION_WIND REUNION_PRES REUNION_TNUM REUNION_CI REUNION_RMW REUNION_R34_NE REUNION_R34_SE REUNION_R34_SW REUNION_R34_NW REUNION_R50_NE REUNION_R50_SE REUNION_R50_SW REUNION_R50_NW REUNION_R64_NE REUNION_R64_SE REUNION_R64_SW REUNION_R64_NW BOM_LAT BOM_LON BOM_TYPE BOM_WIND BOM_PRES BOM_TNUM BOM_CI BOM_RMW BOM_R34_NE BOM_R34_SE BOM_R34_SW BOM_R34_NW BOM_R50_NE BOM_R50_SE BOM_R50_SW BOM_R50_NW BOM_R64_NE BOM_R64_SE BOM_R64_SW BOM_R64_NW BOM_ROCI BOM_POCI BOM_EYE BOM_POS_METHOD BOM_PRES_METHOD NADI_LAT NADI_LON NADI_CAT NADI_WIND NADI_PRES WELLINGTON_LAT WELLINGTON_LON WELLINGTON_WIND WELLINGTON_PRES DS824_LAT DS824_LON DS824_STAGE DS824_WIND DS824_PRES TD9636_LAT TD9636_LON TD9636_STAGE TD9636_WIND TD9636_PRES TD9635_LAT TD9635_LON TD9635_WIND TD9635_PRES TD9635_ROCI NEUMANN_LAT NEUMANN_LON NEUMANN_CLASS NEUMANN_WIND NEUMANN_PRES MLC_LAT MLC_LON MLC_CLASS MLC_WIND MLC_PRES USA_GUST BOM_GUST BOM_GUST_PER REUNION_GUST REUNION_GUST_PER USA_SEAHGT USA_SEARAD_NE USA_SEARAD_SE USA_SEARAD_SW USA_SEARAD_NW STORM_SPEED STORM_DIR
1893309N27289 1893 60 NA NA NOT_NAMED 1893-11-05 00:00:00 TS 26.7000 -70.8000 35 hurdat_atl main 653 641 O_____________ hurdat_atl AL121893 26.7000 -70.8000 TS 35 0 8 276
1893309N27289 1893 60 NA NA NOT_NAMED 1893-11-05 03:00:00 TS 26.7403 -71.2550 main 638 638 P_____________ AL121893 26.7403 -71.2550 TS 35 0 8 277
1893309N27289 1893 60 NA NA NOT_NAMED 1893-11-05 06:00:00 TS 26.8000 -71.7000 35 hurdat_atl main 639 620 O_____________ hurdat_atl AL121893 26.8000 -71.7000 TS 35 0 8 281
1893309N27289 1893 60 NA NA NOT_NAMED 1893-11-05 09:00:00 TS 26.8924 -72.1225 main 620 588 P_____________ AL121893 26.8924 -72.1225 TS 37 0 7 286
1893309N27289 1893 60 NA NA NOT_NAMED 1893-11-05 12:00:00 TS 27.0000 -72.5000 40 hurdat_atl main 588 564 O_____________ hurdat_atl AL121893 27.0000 -72.5000 TS 40 0 7 288
1893309N27289 1893 60 NA NA NOT_NAMED 1893-11-05 15:00:00 TS 27.0999 -72.8226 main 564 541 P_____________ AL121893 27.0999 -72.8226 TS 45 0 6 291
1893309N27289 1893 60 NA NA NOT_NAMED 1893-11-05 18:00:00 TS 27.2000 -73.1000 50 hurdat_atl main 541 528 O_____________ hurdat_atl AL121893 27.2000 -73.1000 TS 50 0 5 292
1893309N27289 1893 60 NA NA NOT_NAMED 1893-11-05 21:00:00 TS 27.2924 -73.3576 main 520 508 P_____________ AL121893 27.2924 -73.3576 TS 50 0 5 294
1893309N27289 1893 60 NA NA NOT_NAMED 1893-11-06 00:00:00 TS 27.4000 -73.6000 50 hurdat_atl main 508 496 O_____________ hurdat_atl AL121893 27.4000 -73.6000 TS 50 0 5 299
1893309N27289 1893 60 NA NA NOT_NAMED 1893-11-06 03:00:00 TS 27.5425 -73.8575 main 488 484 P_____________ AL121893 27.5425 -73.8575 TS 47 0 5 304
1893309N27289 1893 60 NA NA NOT_NAMED 1893-11-06 06:00:00 TS 27.7000 -74.1000 45 hurdat_atl main 484 475 O_____________ hurdat_atl AL121893 27.7000 -74.1000 TS 45 0 5 307
1893309N27289 1893 60 NA NA NOT_NAMED 1893-11-06 09:00:00 TS 27.8424 -74.3076 main 475 475 P_____________ AL121893 27.8424 -74.3076 TS 45 0 5 310
1893309N27289 1893 60 NA NA NOT_NAMED 1893-11-06 12:00:00 TS 28.0000 -74.5000 45 hurdat_atl main 475 468 O_____________ hurdat_atl AL121893 28.0000 -74.5000 TS 45 0 5 313
1893309N27289 1893 60 NA NA NOT_NAMED 1893-11-06 15:00:00 TS 28.1700 -74.7002 main 476 469 P_____________ AL121893 28.1700 -74.7002 TS 45 0 5 319
1893309N27289 1893 60 NA NA NOT_NAMED 1893-11-06 18:00:00 TS 28.4000 -74.9000 45 hurdat_atl main 479 479 O_____________ hurdat_atl AL121893 28.4000 -74.9000 TS 45 0 7 327
1893309N27289 1893 60 NA NA NOT_NAMED 1893-11-06 21:00:00 TS 28.7275 -75.1149 main 494 494 P_____________ AL121893 28.7275 -75.1149 TS 47 0 8 333
1893309N27289 1893 60 NA NA NOT_NAMED 1893-11-07 00:00:00 TS 29.1000 -75.3000 50 hurdat_atl main 510 502 O_____________ hurdat_atl AL121893 29.1000 -75.3000 TS 50 0 8 340
1893309N27289 1893 60 NA NA NOT_NAMED 1893-11-07 03:00:00 TS 29.4499 -75.4152 main 505 500 P_____________ AL121893 29.4499 -75.4152 TS 50 0 7 346
1893309N27289 1893 60 NA NA NOT_NAMED 1893-11-07 06:00:00 TS 29.8000 -75.5000 50 hurdat_atl main 506 480 O_____________ hurdat_atl AL121893 29.8000 -75.5000 TS 50 0 7 347
1893309N27289 1893 60 NA NA NOT_NAMED 1893-11-07 09:00:00 TS 30.1275 -75.6001 main 480 436 P_____________ AL121893 30.1275 -75.6001 TS 52 0 7 346
1893309N27289 1893 60 NA NA NOT_NAMED 1893-11-07 12:00:00 TS 30.5000 -75.7000 55 hurdat_atl main 436 392 O_____________ hurdat_atl AL121893 30.5000 -75.7000 TS 55 0 9 348
1893309N27289 1893 60 NA NA NOT_NAMED 1893-11-07 15:00:00 TS 30.9775 -75.8148 main 383 331 P_____________ AL121893 30.9775 -75.8148 TS 55 0 10 350
1893309N27289 1893 60 NA NA NOT_NAMED 1893-11-07 18:00:00 TS 31.5000 -75.9000 55 hurdat_atl main 331 288 O_____________ hurdat_atl AL121893 31.5000 -75.9000 TS 55 0 10 355
1893309N27289 1893 60 NA NA NOT_NAMED 1893-11-07 21:00:00 TS 31.9925 -75.9300 main 288 249 P_____________ AL121893 31.9925 -75.9300 TS 57 0 10 1
1893309N27289 1893 60 NA NA NOT_NAMED 1893-11-08 00:00:00 TS 32.5000 -75.9000 60 hurdat_atl main 249 200 O_____________ hurdat_atl AL121893 32.5000 -75.9000 TS 60 0 11 5
1893309N27289 1893 60 NA NA NOT_NAMED 1893-11-08 03:00:00 TS 33.0575 -75.8300 main 189 142 P_____________ AL121893 33.0575 -75.8300 TS 60 0 11 9
1893309N27289 1893 60 NA NA NOT_NAMED 1893-11-08 06:00:00 TS 33.6000 -75.7000 60 hurdat_atl main 142 113 O_____________ hurdat_atl AL121893 33.6000 -75.7000 TS 60 0 10 14
1893309N27289 1893 60 NA NA NOT_NAMED 1893-11-08 09:00:00 TS 34.0499 -75.5369 main 120 99 P_____________ AL121893 34.0499 -75.5369 TS 60 0 10 20
1893309N27289 1893 60 NA NA NOT_NAMED 1893-11-08 12:00:00 TS 34.5000 -75.3000 60 hurdat_atl main 101 92 O_____________ hurdat_atl AL121893 34.5000 -75.3000 TS 60 0 11 24
1893309N27289 1893 60 NA NA NOT_NAMED 1893-11-08 15:00:00 TS 35.0423 -74.9948 main 92 77 P_____________ AL121893 35.0423 -74.9948 TS 60 0 12 28
1893309N27289 1893 60 NA NA NOT_NAMED 1893-11-08 18:00:00 TS 35.6000 -74.6000 60 hurdat_atl main 84 81 O_____________ hurdat_atl AL121893 35.6000 -74.6000 TS 60 0 13 33
1893309N27289 1893 60 NA NA NOT_NAMED 1893-11-08 21:00:00 TS 36.1376 -74.1154 main 130 130 P_____________ AL121893 36.1376 -74.1154 TS 57 0 13 39
1893309N27289 1893 60 NA NA NOT_NAMED 1893-11-09 00:00:00 TS 36.6000 -73.6000 55 hurdat_atl main 190 190 O_____________ hurdat_atl AL121893 36.6000 -73.6000 TS 55 0 11 43
1893309N27289 1893 60 NA NA NOT_NAMED 1893-11-09 03:00:00 TS 36.9367 -73.1787 main 226 220 P_____________ AL121893 36.9367 -73.1787 TS 55 0 9 50
1893309N27289 1893 60 NA NA NOT_NAMED 1893-11-09 06:00:00 TS 37.2000 -72.7000 55 hurdat_atl main 243 243 O_____________ hurdat_atl AL121893 37.2000 -72.7000 TS 55 0 10 60
1893309N27289 1893 60 NA NA NOT_NAMED 1893-11-09 09:00:00 TS 37.4414 -72.0960 main 281 277 P_____________ AL121893 37.4414 -72.0960 TS 52 0 12 66
1893309N27289 1893 60 NA NA NOT_NAMED 1893-11-09 12:00:00 TS 37.7000 -71.3000 50 hurdat_atl main 328 328 O_____________ hurdat_atl AL121893 37.7000 -71.3000 TS 50 0 15 67
1893309N27289 1893 60 NA NA NOT_NAMED 1893-11-09 15:00:00 TS 38.0341 -70.3045 main 368 364 P_____________ AL121893 38.0341 -70.3045 TS 50 0 19 68
1893309N27289 1893 60 NA NA NOT_NAMED 1893-11-09 18:00:00 TS 38.4000 -69.1000 50 hurdat_atl main 370 366 O_____________ hurdat_atl AL121893 38.4000 -69.1000 TS 50 0 21 70
1893309N27289 1893 60 NA NA NOT_NAMED 1893-11-09 21:00:00 TS 38.7640 -67.7673 main 372 372 P_____________ AL121893 38.7640 -67.7673 TS 47 0 23 72
1893309N27289 1893 60 NA NA NOT_NAMED 1893-11-10 00:00:00 ET 39.1000 -66.3000 45 hurdat_atl main 425 425 O_____________ hurdat_atl AL121893 39.1000 -66.3000 EX 45 -4 24 75
1893309N27289 1893 60 NA NA NOT_NAMED 1893-11-10 03:00:00 ET 39.3724 -64.7415 main 458 454 P_____________ AL121893 39.3724 -64.7415 EX 45 -4 24 78
1893309N27289 1893 60 NA NA NOT_NAMED 1893-11-10 06:00:00 ET 39.6000 -63.2000 45 hurdat_atl main 467 467 O_____________ hurdat_atl AL121893 39.6000 -63.2000 EX 45 -4 23 79
1893309N27289 1893 60 NA NA NOT_NAMED 1893-11-10 09:00:00 ET 39.8043 -61.8334 main 503 503 P_____________ AL121893 39.8043 -61.8334 EX 42 -4 21 79
1893309N27289 1893 60 NA NA NOT_NAMED 1893-11-10 12:00:00 ET 40.0000 -60.5000 40 hurdat_atl main 551 551 O_____________ hurdat_atl AL121893 40.0000 -60.5000 EX 40 -4 22 79
1893309N27289 1893 60 NA NA NOT_NAMED 1893-11-10 15:00:00 ET 40.2140 -59.0578 main 579 578 P_____________ AL121893 40.2140 -59.0578 EX 40 -4 22 80
1893309N27289 1893 60 NA NA NOT_NAMED 1893-11-10 18:00:00 ET 40.4000 -57.6000 40 hurdat_atl main 604 604 O_____________ hurdat_atl AL121893 40.4000 -57.6000 EX 40 -4 22 82
1893309N27289 1893 60 NA NA NOT_NAMED 1893-11-10 21:00:00 ET 40.5133 -56.1837 main 656 656 P_____________ AL121893 40.5133 -56.1837 EX 40 -4 21 85
1893309N27289 1893 60 NA NA NOT_NAMED 1893-11-11 00:00:00 ET 40.6000 -54.8000 40 hurdat_atl main 673 655 O_____________ hurdat_atl AL121893 40.6000 -54.8000 EX 40 -4 21 85
1893309N27289 1893 60 NA NA NOT_NAMED 1893-11-11 03:00:00 ET 40.6971 -53.4719 main 655 646 P_____________ AL121893 40.6971 -53.4719 EX 40 -4 21 84
1893309N27289 1893 60 NA NA NOT_NAMED 1893-11-11 06:00:00 ET 40.8000 -52.1000 40 hurdat_atl main 650 649 O_____________ hurdat_atl AL121893 40.8000 -52.1000 EX 40 -4 23 84
1893309N27289 1893 60 NA NA NOT_NAMED 1893-11-11 09:00:00 ET 40.9167 -50.5059 main 669 669 P_____________ AL121893 40.9167 -50.5059 EX 40 -4 23 85
1893309N27289 1893 60 NA NA NOT_NAMED 1893-11-11 12:00:00 ET 41.0000 -49.0000 40 hurdat_atl main 707 707 O_____________ hurdat_atl AL121893 41.0000 -49.0000 EX 40 -4 20 87
1893309N27289 1893 60 NA NA NOT_NAMED 1893-11-11 15:00:00 ET 41.0118 -47.8667 main 752 752 P_____________ AL121893 41.0118 -47.8667 EX 40 -4 16 90
1893309N27289 1893 60 NA NA NOT_NAMED 1893-11-11 18:00:00 ET 41.0000 -46.9000 40 hurdat_atl main 800 800 O_____________ hurdat_atl AL121893 41.0000 -46.9000 EX 40 -4 15 91
1893309N27289 1893 60 NA NA NOT_NAMED 1893-11-11 21:00:00 ET 40.9983 -45.9150 main 852 852 P_____________ AL121893 40.9983 -45.9150 EX 40 -4 15 90
1893309N27289 1893 60 NA NA NOT_NAMED 1893-11-12 00:00:00 ET 41.0000 -44.9000 40 hurdat_atl main 909 909 O_____________ hurdat_atl AL121893 41.0000 -44.9000 EX 40 -4 16 90
1893309N27289 1893 60 NA NA NOT_NAMED 1893-11-12 03:00:00 ET 40.9999 -43.7575 main 974 974 P_____________ AL121893 40.9999 -43.7575 EX 40 -4 17 90
1893309N27289 1893 60 NA NA NOT_NAMED 1893-11-12 06:00:00 ET 41.0000 -42.6000 40 hurdat_atl main 1049 1049 O_____________ hurdat_atl AL121893 41.0000 -42.6000 EX 40 -4 16 90
1893309N27289 1893 60 NA NA NOT_NAMED 1893-11-12 09:00:00 ET 40.9975 -41.5725 main 1113 1113 P_____________ AL121893 40.9975 -41.5725 EX 40 -4 16 90
1893309N27289 1893 60 NA NA NOT_NAMED 1893-11-12 12:00:00 ET 41.0000 -40.5000 40 hurdat_atl main 1185 1185 O_____________ hurdat_atl AL121893 41.0000 -40.5000 EX 40 -4 17 90
1893309N27289 1893 60 NA NA NOT_NAMED 1893-11-12 15:00:00 ET 41.0042 -39.2550 main 1266 1266 P_____________ AL121893 41.0042 -39.2550 EX 40 -4 20 90
1893309N27289 1893 60 NA NA NOT_NAMED 1893-11-12 18:00:00 ET 41.0000 -37.9000 40 hurdat_atl main 1363 O_____________ hurdat_atl AL121893 41.0000 -37.9000 EX 40 -4 20 90

About IBTrACS Database

This database is a web-friendly format of International Best Track Archive for Climate Stewardship (IBTrACS), a global best track data archive curated by NOAA dating back to 1842.

Updated: 2021-10-08